Time;durP1;ratioP1;P1;durP2;ratioP2;P2;SDS_P1;SDS_P2;PMS_P1;PMS_P2;Temp;Humidity;BMP_temperature;BMP_pressure;BME280_temperature;BME280_humidity;BME280_pressure;Samples;Min_cycle;Max_cycle;Signal;HPM_P1;HPM_P2
2022/06/25 00:02:02;;;;;;;8.40;6.65;;;20.30;69.50;;;;;;5134493;27;20026;-83
2022/06/25 00:07:12;;;;;;;12.38;6.53;;;20.30;69.90;;;;;;5128139;27;20453;-83
2022/06/25 00:09:38;;;;;;;12.50;6.80;;;20.30;69.90;;;;;;5137858;27;20027;-82
2022/06/25 00:14:49;;;;;;;10.55;6.43;;;20.30;70.00;;;;;;5136177;27;20027;-83
2022/06/25 00:17:15;;;;;;;;;;;20.30;70.20;;;;;;5134572;27;20039;-83
2022/06/25 00:19:42;;;;;;;19.60;7.50;;;20.30;69.50;;;;;;5132078;27;19998;-83
2022/06/25 00:22:08;;;;;;;9.70;7.03;;;20.20;70.40;;;;;;5107964;28;20034;-82
2022/06/25 00:24:33;;;;;;;10.60;6.40;;;20.20;70.60;;;;;;5130372;27;20036;-83
2022/06/25 00:26:59;;;;;;;9.65;5.60;;;20.20;70.80;;;;;;5128649;27;20142;-83
2022/06/25 00:29:25;;;;;;;9.82;6.78;;;20.10;71.00;;;;;;5116987;27;20023;-83
2022/06/25 00:31:50;;;;;;;12.38;6.90;;;20.10;71.30;;;;;;5134108;27;20023;-82
2022/06/25 00:34:16;;;;;;;8.75;6.65;;;20.10;71.50;;;;;;5137081;27;20019;-84
2022/06/25 00:36:42;;;;;;;10.18;6.85;;;20.10;71.50;;;;;;5136404;27;20372;-82
2022/06/25 00:39:08;;;;;;;10.43;6.35;;;20.10;71.50;;;;;;5116335;27;20038;-83
2022/06/25 00:41:33;;;;;;;11.02;6.25;;;20.10;71.70;;;;;;5132316;27;20042;-83
2022/06/25 00:44:05;;;;;;;10.68;6.97;;;20.10;71.80;;;;;;5128434;27;20070;-82
2022/06/25 00:46:30;;;;;;;9.95;6.93;;;20.00;72.00;;;;;;5136801;27;20020;-83
2022/06/25 00:48:56;;;;;;;8.75;6.90;;;20.00;72.30;;;;;;5136884;27;20033;-84
2022/06/25 00:51:26;;;;;;;11.20;7.53;;;20.00;72.70;;;;;;5133888;28;20498;-82
2022/06/25 00:53:53;;;;;;;14.10;7.32;;;19.90;72.70;;;;;;5122763;28;20039;-82
2022/06/25 00:56:21;;;;;;;11.50;7.75;;;20.00;72.70;;;;;;5131959;28;20016;-84
2022/06/25 00:58:51;;;;;;;12.25;7.43;;;20.00;72.80;;;;;;5130207;28;20070;-82
2022/06/25 01:01:18;;;;;;;13.27;7.47;;;19.90;72.80;;;;;;5116582;28;20016;-83
2022/06/25 01:03:44;;;;;;;12.18;7.22;;;19.90;72.90;;;;;;5114857;28;20039;-82
2022/06/25 01:06:13;;;;;;;14.13;6.75;;;20.00;72.90;;;;;;5135960;28;20424;-82
2022/06/25 01:08:39;;;;;;;10.70;6.50;;;20.00;73.20;;;;;;5139982;28;20448;-80
2022/06/25 01:11:07;;;;;;;12.38;7.93;;;20.00;73.10;;;;;;5131744;28;20016;-82
2022/06/25 01:13:33;;;;;;;10.75;6.80;;;20.00;73.00;;;;;;5129872;28;20019;-81
2022/06/25 01:15:59;;;;;;;11.50;6.97;;;20.00;73.10;;;;;;5133389;28;20354;-80
2022/06/25 01:18:25;;;;;;;17.17;6.88;;;20.00;73.30;;;;;;5133480;28;20379;-82
2022/06/25 01:20:51;;;;;;;15.55;7.28;;;20.00;73.40;;;;;;5132645;28;20019;-82
2022/06/25 01:23:16;;;;;;;11.30;6.70;;;20.00;73.40;;;;;;5126387;28;20067;-81
2022/06/25 01:25:42;;;;;;;11.77;6.90;;;20.00;73.40;;;;;;5132506;28;20496;-82
2022/06/25 01:28:08;;;;;;;9.95;6.57;;;20.00;73.20;;;;;;5115064;28;20043;-82
2022/06/25 01:30:35;;;;;;;14.05;6.80;;;20.00;73.30;;;;;;5133232;28;20023;-82
2022/06/25 01:33:01;;;;;;;9.57;7.15;;;20.10;73.40;;;;;;5133789;28;20072;-81
2022/06/25 01:35:27;;;;;;;9.38;6.28;;;20.10;73.30;;;;;;5128378;28;20075;-81
2022/06/25 01:37:52;;;;;;;12.77;6.45;;;20.10;73.30;;;;;;5120279;28;20038;-81
2022/06/25 01:40:18;;;;;;;16.58;7.20;;;20.10;73.20;;;;;;5139889;28;20015;-82
2022/06/25 01:42:59;;;;;;;9.35;6.85;;;20.20;73.10;;;;;;5115145;28;20533;-81
2022/06/25 01:45:35;;;;;;;10.98;6.30;;;20.20;73.10;;;;;;5117045;28;20425;-81
2022/06/25 01:48:01;;;;;;;13.05;6.18;;;20.20;73.10;;;;;;5119745;28;20067;-82
2022/06/25 01:50:29;;;;;;;7.80;6.00;;;20.30;73.20;;;;;;5133953;28;20092;-81
2022/06/25 01:52:55;;;;;;;11.23;6.15;;;20.30;73.00;;;;;;5132871;28;20094;-82
2022/06/25 01:55:21;;;;;;;10.43;6.80;;;20.30;72.90;;;;;;5132648;28;20020;-80
2022/06/25 01:57:49;;;;;;;11.75;6.68;;;20.40;73.10;;;;;;5115565;28;20062;-81
2022/06/25 02:00:22;;;;;;;;;;;20.40;73.20;;;;;;5133875;27;20022;-81
2022/06/25 02:02:47;;;;;;;14.60;7.10;;;20.50;72.50;;;;;;5130524;27;19918;-80
2022/06/25 02:05:15;;;;;;;10.02;6.85;;;20.40;73.00;;;;;;5136307;27;20015;-81
2022/06/25 02:07:41;;;;;;;14.50;6.78;;;20.50;72.90;;;;;;5121866;27;20027;-82
2022/06/25 02:10:08;;;;;;;10.43;6.72;;;20.50;72.80;;;;;;5135622;27;20050;-83
2022/06/25 02:12:34;;;;;;;12.35;6.50;;;20.50;72.80;;;;;;5135622;27;20046;-82
2022/06/25 02:15:01;;;;;;;11.13;6.40;;;20.60;72.70;;;;;;5135473;27;20023;-82
2022/06/25 02:17:28;;;;;;;9.75;6.70;;;20.60;72.20;;;;;;5135268;27;20011;-81
2022/06/25 02:19:54;;;;;;;7.78;6.72;;;20.70;72.50;;;;;;5135229;27;20425;-81
2022/06/25 02:22:19;;;;;;;8.10;6.00;;;20.80;72.50;;;;;;5135213;27;20035;-81
2022/06/25 02:24:45;;;;;;;12.38;6.95;;;20.80;72.40;;;;;;5107134;28;20016;-82
2022/06/25 02:27:11;;;;;;;10.32;6.30;;;20.80;72.10;;;;;;5134376;27;20093;-80
2022/06/25 02:29:37;;;;;;;11.30;6.22;;;20.80;71.80;;;;;;5135222;27;20019;-82
2022/06/25 02:32:04;;;;;;;13.88;6.97;;;20.90;71.70;;;;;;5135226;27;20019;-82
2022/06/25 02:34:30;;;;;;;10.38;6.55;;;20.90;71.40;;;;;;5117019;27;20437;-83
2022/06/25 02:36:56;;;;;;;9.60;6.85;;;20.90;71.30;;;;;;5135306;27;20035;-82
2022/06/25 02:39:21;;;;;;;12.07;6.50;;;21.00;71.30;;;;;;5135156;27;20019;-82
2022/06/25 02:41:47;;;;;;;8.90;6.57;;;21.00;71.70;;;;;;5135184;27;20499;-80
2022/06/25 02:44:13;;;;;;;11.43;6.38;;;21.10;70.90;;;;;;5135449;27;20027;-82
2022/06/25 02:46:39;;;;;;;11.00;6.20;;;21.10;70.80;;;;;;5135496;27;20030;-81
2022/06/25 02:49:05;;;;;;;15.60;6.18;;;21.10;71.10;;;;;;5135300;27;20098;-80
2022/06/25 02:51:31;;;;;;;12.48;6.63;;;21.20;70.40;;;;;;5135446;27;20377;-82
2022/06/25 02:53:56;;;;;;;12.23;7.03;;;21.20;70.10;;;;;;5135215;27;20015;-80
2022/06/25 02:59:08;;;;;;;10.98;6.40;;;21.30;69.90;;;;;;5134856;27;20095;-81
2022/06/25 03:01:33;;;;;;;9.48;5.90;;;21.50;69.40;;;;;;5134723;27;20556;-81
2022/06/25 03:04:00;;;;;;;14.05;6.25;;;21.60;69.10;;;;;;5134499;27;20055;-80
2022/06/25 03:06:26;;;;;;;11.20;6.20;;;21.70;68.60;;;;;;5134768;27;20829;-81
2022/06/25 03:08:52;;;;;;;11.30;6.68;;;21.90;68.40;;;;;;5123438;27;20112;-80
2022/06/25 03:11:19;;;;;;;12.60;5.85;;;22.10;67.90;;;;;;5131232;27;20022;-80
2022/06/25 03:13:45;;;;;;;9.80;5.95;;;22.40;66.60;;;;;;5134844;27;20019;-81
2022/06/25 03:16:11;;;;;;;8.55;5.80;;;22.60;65.90;;;;;;5136439;27;20015;-81
2022/06/25 03:18:38;;;;;;;9.00;5.57;;;22.70;65.40;;;;;;5140380;27;20031;-81
2022/06/25 03:21:04;;;;;;;9.93;6.40;;;22.70;65.20;;;;;;5129579;27;20081;-82
2022/06/25 03:23:31;;;;;;;14.23;5.93;;;22.70;65.20;;;;;;5128480;27;20030;-81
2022/06/25 03:25:57;;;;;;;6.97;5.35;;;22.70;65.30;;;;;;5130029;27;20028;-82
2022/06/25 03:28:22;;;;;;;8.10;5.07;;;22.70;64.70;;;;;;5126304;27;20051;-86
2022/06/25 03:30:48;;;;;;;7.53;5.63;;;22.70;64.60;;;;;;5131033;27;20015;-85
2022/06/25 03:33:14;;;;;;;6.75;4.53;;;22.70;64.10;;;;;;5140950;27;20015;-87
2022/06/25 03:35:40;;;;;;;7.78;5.38;;;22.80;64.10;;;;;;5140718;27;20019;-84
2022/06/25 03:38:06;;;;;;;11.05;5.10;;;22.80;63.60;;;;;;5136127;27;20030;-85
2022/06/25 03:40:32;;;;;;;9.43;5.93;;;22.90;63.40;;;;;;5132939;27;20019;-85
2022/06/25 03:42:59;;;;;;;10.48;5.85;;;22.90;62.70;;;;;;5137669;27;20049;-85
2022/06/25 03:45:25;;;;;;;7.93;5.87;;;22.90;62.90;;;;;;5130608;27;20088;-87
2022/06/25 03:47:51;;;;;;;8.07;5.63;;;22.90;63.10;;;;;;5130292;27;20072;-86
2022/06/25 03:50:17;;;;;;;6.15;5.53;;;23.00;63.00;;;;;;5135311;27;20034;-85
2022/06/25 03:52:45;;;;;;;11.30;5.03;;;23.00;63.00;;;;;;5147458;27;20027;-86
2022/06/25 03:55:11;;;;;;;10.20;6.15;;;23.00;62.50;;;;;;5118093;27;20055;-85
2022/06/25 03:57:37;;;;;;;7.75;5.15;;;23.10;62.70;;;;;;5136600;27;20027;-84
2022/06/25 04:00:05;;;;;;;8.60;5.70;;;23.20;62.70;;;;;;5128216;27;20031;-86
2022/06/25 04:02:32;;;;;;;7.50;5.22;;;23.30;62.90;;;;;;5156363;27;20023;-86
2022/06/25 04:04:58;;;;;;;6.43;5.00;;;23.30;62.30;;;;;;5141674;27;20392;-88
2022/06/25 04:07:23;;;;;;;8.27;5.35;;;23.40;61.80;;;;;;5121245;27;20027;-88
2022/06/25 04:09:49;;;;;;;6.40;5.65;;;23.50;61.90;;;;;;5103061;27;20026;-86
2022/06/25 04:12:15;;;;;;;7.18;5.20;;;23.60;61.60;;;;;;5134886;27;20030;-85
2022/06/25 04:14:41;;;;;;;9.77;5.47;;;23.60;61.70;;;;;;5135902;27;20518;-86
2022/06/25 04:17:07;;;;;;;7.85;5.10;;;23.70;61.70;;;;;;5135112;27;20441;-87
2022/06/25 04:19:40;;;;;;;6.22;4.95;;;23.70;61.30;;;;;;5105011;27;20030;-89
2022/06/25 04:22:07;;;;;;;5.85;4.95;;;23.80;61.30;;;;;;5131043;27;20047;-87
2022/06/25 04:24:35;;;;;;;11.15;5.50;;;23.70;61.60;;;;;;5124673;27;20049;-84
2022/06/25 04:27:01;;;;;;;9.55;5.13;;;23.80;61.50;;;;;;5110099;27;20054;-86
2022/06/25 04:29:27;;;;;;;7.90;5.18;;;23.80;61.00;;;;;;5116238;27;20128;-85
2022/06/25 04:31:53;;;;;;;7.97;5.15;;;23.80;61.40;;;;;;5131456;27;20027;-87
2022/06/25 04:34:19;;;;;;;9.35;6.22;;;23.90;60.80;;;;;;5103826;28;20027;-84
2022/06/25 04:36:45;;;;;;;7.25;4.68;;;24.00;60.50;;;;;;5130558;27;20027;-87
2022/06/25 04:39:11;;;;;;;7.30;4.93;;;24.00;60.00;;;;;;5104122;27;20491;-85
2022/06/25 04:41:37;;;;;;;7.35;5.50;;;24.00;60.40;;;;;;5134432;27;20027;-86
2022/06/25 04:44:02;;;;;;;8.43;5.65;;;24.00;60.40;;;;;;5129332;27;20096;-84
2022/06/25 04:46:29;;;;;;;12.90;5.50;;;23.90;60.80;;;;;;5128534;27;20051;-85
2022/06/25 04:48:56;;;;;;;7.72;5.85;;;24.00;60.70;;;;;;5119123;27;20022;-88
2022/06/25 04:51:22;;;;;;;;;;;24.00;60.80;;;;;;5135998;27;20051;-90
2022/06/25 04:53:56;;;;;;;7.30;5.03;;;24.10;60.70;;;;;;5139473;28;19922;-87
2022/06/25 04:56:26;;;;;;;11.10;5.95;;;24.10;60.60;;;;;;5128612;28;20508;-87
2022/06/25 04:58:53;;;;;;;7.55;4.72;;;24.30;59.70;;;;;;5128907;28;20102;-84
2022/06/25 05:01:19;;;;;;;7.00;4.80;;;24.30;59.70;;;;;;5138464;28;20079;-83
2022/06/25 05:03:45;;;;;;;7.53;4.82;;;24.40;59.40;;;;;;5135480;28;20279;-85
2022/06/25 05:06:11;;;;;;;8.98;4.82;;;24.50;59.00;;;;;;5104887;28;20038;-82
2022/06/25 05:08:38;;;;;;;8.07;4.57;;;24.60;59.30;;;;;;5119830;28;20028;-80
2022/06/25 05:11:03;;;;;;;9.00;5.40;;;24.60;58.70;;;;;;5130571;28;20031;-80
2022/06/25 05:13:29;;;;;;;9.02;4.18;;;24.70;58.80;;;;;;5137400;28;20020;-85
2022/06/25 05:15:55;;;;;;;8.70;4.80;;;25.10;58.30;;;;;;5137338;28;20020;-83
2022/06/25 05:18:21;;;;;;;11.02;5.68;;;25.70;57.00;;;;;;5137052;28;20027;-86
2022/06/25 05:20:47;;;;;;;6.72;4.80;;;26.50;55.90;;;;;;5119566;28;20373;-83
2022/06/25 05:23:13;;;;;;;7.07;5.25;;;27.50;53.50;;;;;;5134972;28;20032;-85
2022/06/25 05:25:40;;;;;;;9.23;4.60;;;28.60;51.30;;;;;;5134641;28;20017;-84
2022/06/25 05:28:06;;;;;;;7.90;4.43;;;29.70;49.10;;;;;;5107097;28;20292;-92
2022/06/25 05:30:33;;;;;;;7.60;4.68;;;30.10;48.80;;;;;;5111442;28;20019;-89
2022/06/25 05:33:00;;;;;;;;;;;31.00;47.10;;;;;;5118704;28;20111;-87
2022/06/25 05:35:26;;;;;;;9.82;4.60;;;;;;;;;;5104116;28;19903;-84
2022/06/25 05:37:52;;;;;;;6.28;4.55;;;;;;;;;;5113816;28;20024;-84
2022/06/25 05:40:18;;;;;;;4.63;4.23;;;31.50;46.80;;;;;;5120883;28;20023;-87
2022/06/25 05:42:45;;;;;;;9.07;4.70;;;33.00;42.20;;;;;;5117708;28;20634;-83
2022/06/25 05:45:11;;;;;;;7.50;3.95;;;33.20;42.00;;;;;;5119400;28;20024;-87
2022/06/25 05:47:37;;;;;;;4.63;3.83;;;33.40;41.60;;;;;;5115429;28;20032;-84
2022/06/25 05:50:04;;;;;;;7.95;4.32;;;34.00;40.70;;;;;;5119612;28;20024;-84
2022/06/25 05:52:30;;;;;;;;;;;34.70;39.90;;;;;;5090117;28;20405;-86
2022/06/25 05:54:57;;;;;;;8.98;4.32;;;35.30;40.70;;;;;;5128006;28;19903;-86
2022/06/25 05:57:23;;;;;;;6.50;4.43;;;;;;;;;;5129411;28;20040;-86
2022/06/25 05:59:49;;;;;;;5.30;4.78;;;35.70;38.50;;;;;;5106649;28;20024;-84
2022/06/25 06:02:15;;;;;;;5.97;4.30;;;;;;;;;;5103807;28;20080;-85
2022/06/25 06:04:41;;;;;;;5.53;4.70;;;;;;;;;;5124034;28;20034;-87
2022/06/25 06:07:07;;;;;;;6.93;4.18;;;36.80;37.10;;;;;;5124494;28;20027;-88
2022/06/25 06:09:34;;;;;;;7.88;4.63;;;37.90;36.50;;;;;;5076949;28;20152;-84
2022/06/25 06:12:00;;;;;;;;;;;38.20;35.20;;;;;;5076807;28;20056;-86
2022/06/25 06:14:25;;;;;;;;;;;38.20;36.30;;;;;;5076687;28;19905;-85
2022/06/25 06:16:51;;;;;;;6.03;4.07;;;38.20;35.60;;;;;;5071907;28;19908;-85
2022/06/25 06:19:17;;;;;;;7.07;4.37;;;38.10;35.30;;;;;;5072414;28;20039;-86
2022/06/25 06:21:43;;;;;;;5.07;4.03;;;38.70;34.60;;;;;;5074771;28;20345;-85
2022/06/25 06:24:09;;;;;;;;;;;39.10;33.80;;;;;;5075950;28;20040;-85
2022/06/25 06:26:35;;;;;;;;;;;39.00;34.70;;;;;;5076016;28;20297;-86
2022/06/25 06:29:01;;;;;;;8.50;4.50;;;;;;;;;;5066725;28;19919;-86
2022/06/25 06:31:27;;;;;;;6.57;4.53;;;40.00;32.10;;;;;;5069335;28;20477;-86
2022/06/25 06:33:53;;;;;;;6.70;4.28;;;40.10;32.40;;;;;;5062827;28;20044;-87
2022/06/25 06:36:19;;;;;;;6.80;4.20;;;;;;;;;;5076459;28;20510;-86
2022/06/25 06:38:45;;;;;;;8.93;4.13;;;40.60;32.00;;;;;;5077213;28;20035;-85
2022/06/25 06:41:12;;;;;;;10.57;4.93;;;41.70;31.70;;;;;;5105051;28;20027;-85
2022/06/25 06:43:39;;;;;;;4.38;3.97;;;42.30;31.10;;;;;;5123914;28;20019;-86
2022/06/25 06:46:05;;;;;;;4.90;3.92;;;42.90;30.70;;;;;;5118513;28;20018;-85
2022/06/25 06:48:30;;;;;;;7.32;4.20;;;43.00;30.20;;;;;;5116839;28;20020;-84
2022/06/25 06:50:56;;;;;;;5.75;4.57;;;42.20;30.40;;;;;;5134337;28;20028;-86
2022/06/25 06:53:22;;;;;;;8.32;4.40;;;42.00;30.70;;;;;;5137198;28;20016;-87
2022/06/25 06:55:48;;;;;;;8.77;4.43;;;41.30;30.90;;;;;;5120432;28;20051;-84
2022/06/25 06:58:14;;;;;;;9.13;4.55;;;40.00;32.40;;;;;;5102167;28;20027;-85
2022/06/25 07:00:40;;;;;;;5.00;4.10;;;39.50;31.90;;;;;;5122779;28;20051;-86
2022/06/25 07:03:06;;;;;;;6.40;4.28;;;38.80;32.30;;;;;;5115891;28;20061;-88
2022/06/25 07:05:32;;;;;;;7.07;4.47;;;38.80;32.60;;;;;;5107271;28;20088;-88
2022/06/25 07:07:57;;;;;;;6.97;5.00;;;38.80;32.90;;;;;;5105702;28;20468;-85
2022/06/25 07:10:23;;;;;;;6.10;5.00;;;38.80;33.10;;;;;;5099298;28;20436;-85
2022/06/25 07:12:49;;;;;;;10.13;5.38;;;39.10;32.80;;;;;;5114615;28;20027;-84
2022/06/25 07:15:15;;;;;;;6.82;3.45;;;39.10;32.50;;;;;;5098672;28;20028;-89
2022/06/25 07:17:42;;;;;;;7.10;3.92;;;39.80;32.20;;;;;;5111089;28;20046;-90
2022/06/25 07:20:09;;;;;;;7.72;4.30;;;40.90;31.20;;;;;;5125586;28;20082;-89
2022/06/25 07:22:35;;;;;;;7.85;4.10;;;42.40;30.40;;;;;;5118962;28;20038;-86
2022/06/25 07:25:00;;;;;;;;;;;43.20;30.00;;;;;;5119056;28;20028;-86
2022/06/25 07:27:26;;;;;;;6.50;4.55;;;44.50;30.50;;;;;;5107162;28;19916;-86
2022/06/25 07:29:52;;;;;;;10.35;4.68;;;45.10;29.30;;;;;;5114837;28;20025;-84
2022/06/25 07:32:18;;;;;;;4.22;3.70;;;45.10;29.10;;;;;;5121405;28;20080;-87
2022/06/25 07:34:43;;;;;;;;;;;44.90;28.50;;;;;;5103510;28;20020;-88
2022/06/25 07:37:09;;;;;;;6.55;3.15;;;43.40;29.10;;;;;;5118730;28;19904;-88
2022/06/25 07:39:35;;;;;;;;;;;42.50;29.60;;;;;;5077301;28;20028;-85
2022/06/25 07:42:01;;;;;;;7.57;3.97;;;42.50;30.20;;;;;;5105163;28;19983;-84
2022/06/25 07:44:27;;;;;;;5.68;3.75;;;42.70;30.00;;;;;;5112433;28;20036;-87
2022/06/25 07:46:52;;;;;;;;;;;43.60;30.00;;;;;;5070495;28;20049;-87
2022/06/25 07:49:18;;;;;;;4.50;3.75;;;43.90;29.70;;;;;;5120307;28;20579;-85
2022/06/25 07:52:03;;;;;;;8.25;4.30;;;43.90;29.00;;;;;;5090018;28;20016;-86
2022/06/25 07:54:31;;;;;;;6.53;4.33;;;43.80;29.00;;;;;;5115065;28;20019;-86
2022/06/25 07:56:58;;;;;;;7.75;3.95;;;43.20;29.30;;;;;;5070138;28;20025;-85
2022/06/25 07:59:24;;;;;;;8.80;3.97;;;43.40;29.70;;;;;;5086458;28;20415;-86
2022/06/25 08:01:51;;;;;;;6.05;4.15;;;43.50;29.40;;;;;;5087368;28;20020;-84
2022/06/25 08:04:17;;;;;;;8.52;3.90;;;43.80;29.20;;;;;;5078495;28;20108;-84
2022/06/25 08:06:44;;;;;;;4.20;3.53;;;44.60;29.20;;;;;;5068309;28;20025;-84
2022/06/25 08:09:10;;;;;;;6.60;3.75;;;44.90;28.40;;;;;;5095259;28;20027;-82
2022/06/25 08:11:37;;;;;;;7.18;3.22;;;;;;;;;;5096915;28;20055;-86
2022/06/25 08:14:03;;;;;;;5.93;3.50;;;;;;;;;;5092068;28;20028;-87
2022/06/25 08:16:30;;;;;;;7.03;3.88;;;;;;;;;;5102152;28;20468;-83
2022/06/25 08:18:56;;;;;;;7.22;4.43;;;;;;;;;;5100484;28;20046;-84
2022/06/25 08:21:22;;;;;;;4.90;3.50;;;;;;;;;;5098116;28;20028;-88
2022/06/25 08:23:48;;;;;;;4.40;3.65;;;42.00;29.00;;;;;;5095987;28;20032;-86
2022/06/25 08:26:15;;;;;;;;;;;41.70;29.90;;;;;;5112564;28;20049;-90
2022/06/25 08:28:42;;;;;;;6.38;3.80;;;40.70;30.00;;;;;;5095580;28;19916;-90
2022/06/25 08:31:07;;;;;;;6.78;3.75;;;40.40;31.60;;;;;;5107007;28;20401;-88
2022/06/25 08:33:34;;;;;;;10.50;4.72;;;40.30;31.50;;;;;;5105050;28;20024;-87
2022/06/25 08:35:59;;;;;;;;;;;40.80;31.20;;;;;;5098024;28;20084;-89
2022/06/25 08:38:25;;;;;;;3.88;3.40;;;40.80;30.60;;;;;;5092223;28;19931;-91
2022/06/25 08:40:59;;;;;;;6.10;4.35;;;39.30;31.30;;;;;;5100609;28;20112;-91
2022/06/25 08:43:25;;;;;;;3.83;3.13;;;38.90;32.30;;;;;;5082150;28;20028;-90
2022/06/25 08:45:52;;;;;;;5.40;3.97;;;40.00;31.60;;;;;;5099323;28;20080;-92
2022/06/25 08:48:23;;;;;;;5.80;2.92;;;41.00;30.80;;;;;;5068034;28;20044;-88
2022/06/25 08:50:50;;;;;;;6.10;3.78;;;41.70;30.30;;;;;;5082878;28;20024;-89
2022/06/25 08:53:16;;;;;;;5.50;4.20;;;41.40;29.90;;;;;;5099114;28;20028;-91
2022/06/25 08:55:44;;;;;;;7.63;4.43;;;39.60;30.90;;;;;;5093058;28;20012;-88
2022/06/25 08:58:12;;;;;;;4.20;3.17;;;38.90;32.20;;;;;;5076377;28;20051;-88
2022/06/25 09:00:41;;;;;;;6.55;3.38;;;39.80;31.90;;;;;;5100979;28;20024;-87
2022/06/25 09:03:08;;;;;;;5.43;2.85;;;41.10;31.10;;;;;;5086130;28;20408;-87
2022/06/25 09:05:40;;;;;;;7.90;3.92;;;41.50;30.20;;;;;;5070571;28;20032;-91
2022/06/25 09:08:11;;;;;;;6.57;3.95;;;41.60;30.10;;;;;;5100964;28;20024;-93
2022/06/25 09:10:43;;;;;;;4.93;3.40;;;42.40;30.10;;;;;;5112972;28;20084;-90
2022/06/25 09:13:11;;;;;;;5.80;3.20;;;42.50;29.30;;;;;;5076796;28;20397;-93
2022/06/25 09:15:40;;;;;;;5.68;2.80;;;41.90;29.40;;;;;;5109992;28;20016;-88
2022/06/25 09:18:11;;;;;;;3.80;3.40;;;42.00;29.50;;;;;;5091652;28;20083;-89
2022/06/25 09:20:59;;;;;;;10.65;3.47;;;42.40;29.30;;;;;;5075178;28;20062;-92
2022/06/25 09:23:29;;;;;;;4.65;3.15;;;42.60;29.40;;;;;;5071424;28;20055;-92
2022/06/25 09:26:09;;;;;;;3.85;2.67;;;42.60;28.70;;;;;;5092161;28;20417;-88
2022/06/25 09:28:40;;;;;;;6.32;3.63;;;43.00;29.00;;;;;;5122702;28;20054;-88
2022/06/25 09:31:07;;;;;;;4.13;3.00;;;43.50;29.30;;;;;;5120234;28;20031;-89
2022/06/25 09:33:37;;;;;;;6.18;3.38;;;43.20;28.70;;;;;;5119318;28;20031;-91
2022/06/25 09:36:03;;;;;;;4.50;2.72;;;43.50;28.80;;;;;;5130304;28;20093;-89
2022/06/25 09:38:51;;;;;;;3.92;2.60;;;43.50;28.70;;;;;;5130708;28;20023;-91
2022/06/25 09:41:18;;;;;;;5.20;2.83;;;43.20;28.70;;;;;;5131230;28;20019;-91
2022/06/25 09:43:47;;;;;;;6.05;3.10;;;42.80;28.90;;;;;;5121495;28;20031;-90
2022/06/25 09:46:13;;;;;;;4.18;3.08;;;42.80;29.20;;;;;;5117398;28;20012;-92
2022/06/25 09:48:42;;;;;;;4.07;2.85;;;42.80;29.30;;;;;;5107258;28;20477;-91
2022/06/25 09:51:08;;;;;;;5.07;3.35;;;42.80;29.10;;;;;;5122207;28;20026;-93
2022/06/25 09:53:42;;;;;;;5.05;3.42;;;42.20;29.50;;;;;;5115078;28;20016;-91
2022/06/25 09:56:09;;;;;;;5.07;2.72;;;42.30;29.70;;;;;;5088683;28;20037;-89
2022/06/25 09:58:35;;;;;;;4.90;3.35;;;43.10;29.50;;;;;;5075133;28;20044;-91
2022/06/25 10:01:03;;;;;;;3.90;3.10;;;43.80;29.00;;;;;;5058117;28;20132;-90
2022/06/25 10:03:31;;;;;;;4.68;3.50;;;42.80;29.10;;;;;;5083028;28;20032;-90
2022/06/25 10:06:00;;;;;;;6.57;3.28;;;42.50;29.40;;;;;;5084233;28;20020;-89
2022/06/25 10:08:29;;;;;;;4.32;3.33;;;42.80;29.40;;;;;;5066224;28;20076;-85
2022/06/25 10:10:56;;;;;;;4.45;2.42;;;42.10;29.30;;;;;;5074518;28;20034;-89
2022/06/25 10:13:29;;;;;;;5.82;3.30;;;41.40;29.80;;;;;;5069969;28;20543;-93
2022/06/25 10:15:56;;;;;;;4.65;2.95;;;41.00;30.20;;;;;;5058557;28;20025;-92
2022/06/25 10:18:24;;;;;;;4.28;2.95;;;41.20;30.30;;;;;;5083206;28;20025;-90
2022/06/25 10:20:51;;;;;;;4.97;3.42;;;42.30;29.80;;;;;;5080364;28;20048;-90
2022/06/25 10:23:25;;;;;;;3.00;2.70;;;42.80;29.20;;;;;;5087854;28;20068;-89
2022/06/25 10:25:51;;;;;;;3.47;2.63;;;42.90;29.00;;;;;;5071136;28;20044;-88
2022/06/25 10:28:23;;;;;;;;;;;42.30;29.40;;;;;;5083469;28;20072;-90
2022/06/25 10:30:57;;;;;;;6.90;3.15;;;41.00;30.00;;;;;;5081333;28;20281;-86
2022/06/25 10:33:25;;;;;;;3.33;2.70;;;39.90;30.50;;;;;;5082765;28;20023;-84
2022/06/25 10:35:56;;;;;;;3.45;2.80;;;38.70;30.80;;;;;;5091543;28;20118;-85
2022/06/25 10:38:26;;;;;;;4.05;2.97;;;37.30;32.50;;;;;;5096138;28;20020;-85
2022/06/25 10:42:58;;;;;;;5.15;3.35;;;35.80;34.40;;;;;;5094949;28;20131;-83
2022/06/25 10:43:49;;;;;;;6.93;3.63;;;34.50;35.00;;;;;;5118321;28;20035;-83
2022/06/25 10:46:24;;;;;;;5.20;3.80;;;;;;;;;;5117183;28;20030;-86
2022/06/25 10:49:18;;;;;;;5.38;3.70;;;33.00;36.40;;;;;;5118410;28;20022;-87
2022/06/25 10:51:47;;;;;;;5.82;4.32;;;32.60;38.40;;;;;;5123182;28;20047;-85
2022/06/25 10:54:22;;;;;;;9.02;4.05;;;32.30;39.30;;;;;;5102843;28;20061;-85
2022/06/25 10:56:53;;;;;;;9.57;3.58;;;32.20;40.00;;;;;;5125198;28;20080;-83
2022/06/25 10:59:45;;;;;;;6.43;4.03;;;32.00;40.60;;;;;;5081440;28;20035;-83
2022/06/25 11:02:16;;;;;;;5.60;3.85;;;31.70;40.20;;;;;;5113756;28;20024;-82
2022/06/25 11:04:52;;;;;;;4.28;3.65;;;31.30;40.70;;;;;;5069141;27;20035;-83
2022/06/25 11:07:25;;;;;;;5.75;3.42;;;30.70;41.10;;;;;;5127675;27;20080;-81
2022/06/25 11:09:53;;;;;;;4.22;3.53;;;30.20;41.90;;;;;;5121189;27;20030;-84
2022/06/25 11:12:28;;;;;;;4.90;4.25;;;29.90;42.60;;;;;;5119805;27;20019;-89
2022/06/25 11:15:06;;;;;;;4.80;3.42;;;29.90;42.10;;;;;;5126762;27;20094;-86
2022/06/25 11:17:33;;;;;;;5.72;4.00;;;29.80;42.00;;;;;;5134694;27;20480;-85
2022/06/25 11:20:17;;;;;;;4.32;3.67;;;29.80;42.70;;;;;;5151837;27;20078;-86
2022/06/25 11:22:51;;;;;;;6.07;3.75;;;29.80;42.60;;;;;;5148110;27;20085;-87
2022/06/25 11:30:47;;;;;;;5.05;4.03;;;29.90;43.10;;;;;;5140680;27;20432;-88
2022/06/25 11:33:15;;;;;;;4.85;3.67;;;29.90;42.60;;;;;;5123040;27;20045;-86
2022/06/25 11:35:47;;;;;;;7.68;3.88;;;29.80;42.70;;;;;;5126657;27;20286;-86
2022/06/25 11:38:21;;;;;;;5.75;3.40;;;29.60;43.30;;;;;;5143228;27;20046;-89
2022/06/25 11:40:47;;;;;;;5.50;4.10;;;29.50;43.50;;;;;;5140642;27;20015;-83
2022/06/25 11:43:14;;;;;;;3.90;3.33;;;29.40;43.40;;;;;;5118284;27;20053;-84
2022/06/25 11:46:07;;;;;;;5.70;4.25;;;29.40;44.80;;;;;;5125046;27;20087;-83
2022/06/25 11:48:33;;;;;;;7.43;4.25;;;29.60;43.80;;;;;;5119203;27;20035;-83
2022/06/25 11:51:00;;;;;;;4.97;3.92;;;29.70;43.30;;;;;;5138815;27;20035;-84
2022/06/25 11:53:26;;;;;;;;;;;29.70;43.50;;;;;;5136030;27;20026;-85
2022/06/25 11:55:59;;;;;;;5.43;3.90;;;29.70;43.10;;;;;;5135648;27;19915;-84
2022/06/25 11:58:26;;;;;;;7.05;3.92;;;29.60;43.40;;;;;;5131970;27;20023;-86
2022/06/25 12:01:00;;;;;;;4.32;3.63;;;29.70;43.70;;;;;;5130967;27;20047;-84
2022/06/25 12:03:27;;;;;;;6.13;4.00;;;29.60;43.40;;;;;;5109007;27;20031;-86
2022/06/25 12:05:54;;;;;;;4.18;3.58;;;29.60;43.70;;;;;;5150942;27;20011;-85
2022/06/25 12:08:22;;;;;;;6.20;4.25;;;29.50;43.40;;;;;;5152970;27;20027;-85
2022/06/25 12:10:48;;;;;;;4.82;4.10;;;29.50;44.30;;;;;;5137580;27;20016;-88
2022/06/25 12:13:15;;;;;;;4.67;3.80;;;29.40;43.70;;;;;;5138692;27;20011;-86
2022/06/25 12:15:41;;;;;;;3.47;3.17;;;29.50;43.90;;;;;;5129122;27;20421;-87
2022/06/25 12:18:08;;;;;;;6.22;3.95;;;29.40;43.90;;;;;;5104933;27;20140;-89
2022/06/25 12:20:34;;;;;;;4.90;3.67;;;29.30;43.90;;;;;;5096432;28;20032;-91
2022/06/25 12:23:01;;;;;;;4.80;4.30;;;29.10;44.20;;;;;;5119022;27;20027;-89
2022/06/25 12:25:28;;;;;;;;;;;29.10;44.90;;;;;;5143471;27;20161;-88
2022/06/25 12:27:55;;;;;;;5.22;4.03;;;29.00;44.00;;;;;;5130819;27;19964;-84
2022/06/25 12:30:31;;;;;;;6.68;4.07;;;28.90;44.60;;;;;;5134138;27;20035;-88
2022/06/25 12:33:14;;;;;;;5.60;4.23;;;28.90;44.60;;;;;;5158898;27;20011;-85
2022/06/25 12:35:41;;;;;;;5.03;3.80;;;28.90;44.80;;;;;;5138646;27;20056;-87
2022/06/25 12:38:08;;;;;;;6.85;3.58;;;28.90;44.80;;;;;;5142457;27;20022;-85
2022/06/25 12:40:38;;;;;;;6.65;4.10;;;28.90;44.60;;;;;;5134877;27;20061;-84
2022/06/25 12:43:07;;;;;;;6.50;3.97;;;28.90;44.20;;;;;;5131102;27;20361;-84
2022/06/25 12:45:34;;;;;;;3.63;3.33;;;28.90;44.20;;;;;;5130395;27;20087;-83
2022/06/25 12:48:01;;;;;;;6.27;4.30;;;28.80;45.50;;;;;;5128693;27;20102;-85
2022/06/25 12:50:33;;;;;;;10.52;4.47;;;28.70;45.00;;;;;;5126224;27;20019;-84
2022/06/25 12:53:11;;;;;;;4.80;4.00;;;28.70;45.40;;;;;;5125507;27;20024;-85
2022/06/25 12:55:38;;;;;;;4.90;3.67;;;28.70;45.70;;;;;;5125441;28;20024;-85
2022/06/25 12:58:09;;;;;;;4.03;3.60;;;28.70;45.40;;;;;;5127818;28;20464;-87
2022/06/25 13:00:40;;;;;;;5.53;3.60;;;28.70;45.50;;;;;;5123547;28;20027;-85
2022/06/25 13:03:07;;;;;;;3.80;3.40;;;28.70;45.50;;;;;;5136312;28;20070;-86
2022/06/25 13:05:33;;;;;;;4.97;3.70;;;28.80;45.40;;;;;;5136230;28;20102;-85
2022/06/25 13:08:01;;;;;;;6.75;3.80;;;28.90;44.80;;;;;;5123266;28;20443;-83
2022/06/25 13:10:27;;;;;;;5.57;4.28;;;28.90;44.40;;;;;;5104716;28;20652;-81